sensor_id;sensor_type;location;lat;lon;timestamp;temperature;humidity
20231;DHT22;10274;49.022;9.338;2023-05-01T00:01:06;7.90;99.90
20231;DHT22;10274;49.022;9.338;2023-05-01T00:03:33;7.80;99.90
20231;DHT22;10274;49.022;9.338;2023-05-01T00:06:02;7.80;99.90
20231;DHT22;10274;49.022;9.338;2023-05-01T00:08:30;7.80;99.90
20231;DHT22;10274;49.022;9.338;2023-05-01T00:10:56;7.90;99.90
20231;DHT22;10274;49.022;9.338;2023-05-01T00:13:28;8.00;99.90
20231;DHT22;10274;49.022;9.338;2023-05-01T00:15:54;8.00;99.90
20231;DHT22;10274;49.022;9.338;2023-05-01T00:18:21;8.00;99.90
20231;DHT22;10274;49.022;9.338;2023-05-01T00:20:48;8.00;99.90
20231;DHT22;10274;49.022;9.338;2023-05-01T00:23:16;8.10;99.90
20231;DHT22;10274;49.022;9.338;2023-05-01T00:25:42;8.10;99.90
20231;DHT22;10274;49.022;9.338;2023-05-01T00:28:09;8.00;99.90
20231;DHT22;10274;49.022;9.338;2023-05-01T00:30:36;8.20;99.90
20231;DHT22;10274;49.022;9.338;2023-05-01T00:33:02;8.10;99.90
20231;DHT22;10274;49.022;9.338;2023-05-01T00:35:29;8.00;99.90
20231;DHT22;10274;49.022;9.338;2023-05-01T00:40:25;8.00;99.90
20231;DHT22;10274;49.022;9.338;2023-05-01T00:42:52;7.90;99.90
20231;DHT22;10274;49.022;9.338;2023-05-01T00:45:19;7.80;99.90
20231;DHT22;10274;49.022;9.338;2023-05-01T00:47:46;7.80;99.90
20231;DHT22;10274;49.022;9.338;2023-05-01T00:50:13;7.80;99.90
20231;DHT22;10274;49.022;9.338;2023-05-01T00:52:40;7.80;99.90
20231;DHT22;10274;49.022;9.338;2023-05-01T00:55:07;7.60;99.90
20231;DHT22;10274;49.022;9.338;2023-05-01T00:57:35;7.70;99.90
20231;DHT22;10274;49.022;9.338;2023-05-01T01:00:02;7.60;99.90
20231;DHT22;10274;49.022;9.338;2023-05-01T01:02:30;7.70;99.90
20231;DHT22;10274;49.022;9.338;2023-05-01T01:04:57;7.70;99.90
20231;DHT22;10274;49.022;9.338;2023-05-01T01:07:31;7.80;99.90
20231;DHT22;10274;49.022;9.338;2023-05-01T01:10:07;7.80;99.90
20231;DHT22;10274;49.022;9.338;2023-05-01T01:12:46;7.70;99.90
20231;DHT22;10274;49.022;9.338;2023-05-01T01:15:20;7.70;99.90
20231;DHT22;10274;49.022;9.338;2023-05-01T01:17:55;7.80;99.90
20231;DHT22;10274;49.022;9.338;2023-05-01T01:20:29;7.70;99.90
20231;DHT22;10274;49.022;9.338;2023-05-01T01:23:12;7.70;99.90
20231;DHT22;10274;49.022;9.338;2023-05-01T01:26:00;7.60;99.90
20231;DHT22;10274;49.022;9.338;2023-05-01T01:28:57;7.40;99.90
20231;DHT22;10274;49.022;9.338;2023-05-01T01:31:32;7.50;99.90
20231;DHT22;10274;49.022;9.338;2023-05-01T01:34:12;7.50;99.90
20231;DHT22;10274;49.022;9.338;2023-05-01T01:36:45;7.60;99.90
20231;DHT22;10274;49.022;9.338;2023-05-01T01:39:21;7.50;99.90
20231;DHT22;10274;49.022;9.338;2023-05-01T01:41:51;7.60;99.90
20231;DHT22;10274;49.022;9.338;2023-05-01T01:44:22;7.70;99.90
20231;DHT22;10274;49.022;9.338;2023-05-01T01:46:53;7.60;99.90
20231;DHT22;10274;49.022;9.338;2023-05-01T01:49:24;7.60;99.90
20231;DHT22;10274;49.022;9.338;2023-05-01T01:51:52;7.60;99.90
20231;DHT22;10274;49.022;9.338;2023-05-01T01:54:25;7.70;99.90
20231;DHT22;10274;49.022;9.338;2023-05-01T01:56:52;7.60;99.90
20231;DHT22;10274;49.022;9.338;2023-05-01T01:59:22;7.70;99.90
20231;DHT22;10274;49.022;9.338;2023-05-01T02:01:50;7.60;99.90
20231;DHT22;10274;49.022;9.338;2023-05-01T02:04:19;7.70;99.90
20231;DHT22;10274;49.022;9.338;2023-05-01T02:06:48;7.60;99.90
20231;DHT22;10274;49.022;9.338;2023-05-01T02:09:18;7.60;99.90
20231;DHT22;10274;49.022;9.338;2023-05-01T02:11:45;7.70;99.90
20231;DHT22;10274;49.022;9.338;2023-05-01T02:14:15;7.50;99.90
20231;DHT22;10274;49.022;9.338;2023-05-01T02:16:44;7.40;99.90
20231;DHT22;10274;49.022;9.338;2023-05-01T02:19:12;7.40;99.90
20231;DHT22;10274;49.022;9.338;2023-05-01T02:21:40;7.40;99.90
20231;DHT22;10274;49.022;9.338;2023-05-01T02:24:09;7.30;99.90
20231;DHT22;10274;49.022;9.338;2023-05-01T02:26:40;7.30;99.90
20231;DHT22;10274;49.022;9.338;2023-05-01T02:29:09;7.40;99.90
20231;DHT22;10274;49.022;9.338;2023-05-01T02:31:36;7.50;99.90
20231;DHT22;10274;49.022;9.338;2023-05-01T02:34:02;7.60;99.90
20231;DHT22;10274;49.022;9.338;2023-05-01T02:36:29;7.30;99.90
20231;DHT22;10274;49.022;9.338;2023-05-01T02:38:58;7.20;99.90
20231;DHT22;10274;49.022;9.338;2023-05-01T02:41:27;7.20;99.90
20231;DHT22;10274;49.022;9.338;2023-05-01T02:44:03;7.20;99.90
20231;DHT22;10274;49.022;9.338;2023-05-01T02:46:31;7.20;99.90
20231;DHT22;10274;49.022;9.338;2023-05-01T02:49:00;7.30;99.90
20231;DHT22;10274;49.022;9.338;2023-05-01T02:51:28;7.30;99.90
20231;DHT22;10274;49.022;9.338;2023-05-01T02:53:56;7.40;99.90
20231;DHT22;10274;49.022;9.338;2023-05-01T02:56:25;7.50;99.90
20231;DHT22;10274;49.022;9.338;2023-05-01T02:58:53;7.50;99.90
20231;DHT22;10274;49.022;9.338;2023-05-01T03:01:20;7.60;99.90
20231;DHT22;10274;49.022;9.338;2023-05-01T03:03:46;7.60;99.90
20231;DHT22;10274;49.022;9.338;2023-05-01T03:06:13;7.70;99.90
20231;DHT22;10274;49.022;9.338;2023-05-01T03:08:40;7.60;99.90
20231;DHT22;10274;49.022;9.338;2023-05-01T03:11:07;7.60;99.90
20231;DHT22;10274;49.022;9.338;2023-05-01T03:13:35;7.70;99.90
20231;DHT22;10274;49.022;9.338;2023-05-01T03:16:02;7.80;99.90
20231;DHT22;10274;49.022;9.338;2023-05-01T03:18:29;7.50;99.90
20231;DHT22;10274;49.022;9.338;2023-05-01T03:20:56;7.50;99.90
20231;DHT22;10274;49.022;9.338;2023-05-01T03:23:23;7.40;99.90
20231;DHT22;10274;49.022;9.338;2023-05-01T03:25:50;7.40;99.90
20231;DHT22;10274;49.022;9.338;2023-05-01T03:28:16;7.30;99.90
20231;DHT22;10274;49.022;9.338;2023-05-01T03:30:44;7.50;99.90
20231;DHT22;10274;49.022;9.338;2023-05-01T03:33:11;7.50;99.90
20231;DHT22;10274;49.022;9.338;2023-05-01T03:35:38;7.60;99.90
20231;DHT22;10274;49.022;9.338;2023-05-01T03:38:05;7.50;99.90
20231;DHT22;10274;49.022;9.338;2023-05-01T03:40:32;7.40;99.90
20231;DHT22;10274;49.022;9.338;2023-05-01T03:42:59;7.50;99.90
20231;DHT22;10274;49.022;9.338;2023-05-01T03:45:25;7.50;99.90
20231;DHT22;10274;49.022;9.338;2023-05-01T03:47:53;7.70;99.90
20231;DHT22;10274;49.022;9.338;2023-05-01T03:50:21;7.70;99.90
20231;DHT22;10274;49.022;9.338;2023-05-01T03:52:48;7.70;99.90
20231;DHT22;10274;49.022;9.338;2023-05-01T03:55:15;7.80;99.90
20231;DHT22;10274;49.022;9.338;2023-05-01T03:57:41;7.80;99.90
20231;DHT22;10274;49.022;9.338;2023-05-01T04:00:09;7.90;99.90
20231;DHT22;10274;49.022;9.338;2023-05-01T04:02:36;7.90;99.90
20231;DHT22;10274;49.022;9.338;2023-05-01T04:05:05;7.90;99.90
20231;DHT22;10274;49.022;9.338;2023-05-01T04:07:32;7.90;99.90
20231;DHT22;10274;49.022;9.338;2023-05-01T04:09:58;7.90;99.90
20231;DHT22;10274;49.022;9.338;2023-05-01T04:12:25;7.80;99.90
20231;DHT22;10274;49.022;9.338;2023-05-01T04:14:51;7.80;99.90
20231;DHT22;10274;49.022;9.338;2023-05-01T04:17:18;7.80;99.90
20231;DHT22;10274;49.022;9.338;2023-05-01T04:19:45;7.90;99.90
20231;DHT22;10274;49.022;9.338;2023-05-01T04:22:13;7.90;99.90
20231;DHT22;10274;49.022;9.338;2023-05-01T04:24:40;7.90;99.90
20231;DHT22;10274;49.022;9.338;2023-05-01T04:27:07;8.00;99.90
20231;DHT22;10274;49.022;9.338;2023-05-01T04:29:34;7.90;99.90
20231;DHT22;10274;49.022;9.338;2023-05-01T04:32:00;7.90;99.90
20231;DHT22;10274;49.022;9.338;2023-05-01T04:34:27;8.00;99.90
20231;DHT22;10274;49.022;9.338;2023-05-01T04:36:54;8.00;99.90
20231;DHT22;10274;49.022;9.338;2023-05-01T04:39:23;8.10;99.90
20231;DHT22;10274;49.022;9.338;2023-05-01T04:41:50;8.10;99.90
20231;DHT22;10274;49.022;9.338;2023-05-01T04:44:17;8.10;99.90
20231;DHT22;10274;49.022;9.338;2023-05-01T04:46:43;8.20;99.90
20231;DHT22;10274;49.022;9.338;2023-05-01T04:49:10;8.20;99.90
20231;DHT22;10274;49.022;9.338;2023-05-01T04:51:37;8.30;99.90
20231;DHT22;10274;49.022;9.338;2023-05-01T04:54:04;8.30;99.90
20231;DHT22;10274;49.022;9.338;2023-05-01T04:56:32;8.30;99.90
20231;DHT22;10274;49.022;9.338;2023-05-01T04:58:58;8.30;99.90
20231;DHT22;10274;49.022;9.338;2023-05-01T05:01:25;8.30;99.90
20231;DHT22;10274;49.022;9.338;2023-05-01T05:03:52;8.40;99.90
20231;DHT22;10274;49.022;9.338;2023-05-01T05:06:18;8.40;99.90
20231;DHT22;10274;49.022;9.338;2023-05-01T05:08:45;8.40;99.90
20231;DHT22;10274;49.022;9.338;2023-05-01T05:11:12;8.50;99.90
20231;DHT22;10274;49.022;9.338;2023-05-01T05:13:40;8.50;99.90
20231;DHT22;10274;49.022;9.338;2023-05-01T05:16:06;8.60;99.90
20231;DHT22;10274;49.022;9.338;2023-05-01T05:18:33;8.80;99.90
20231;DHT22;10274;49.022;9.338;2023-05-01T05:21:02;8.80;99.90
20231;DHT22;10274;49.022;9.338;2023-05-01T05:23:29;8.80;99.90
20231;DHT22;10274;49.022;9.338;2023-05-01T05:25:56;8.80;99.90
20231;DHT22;10274;49.022;9.338;2023-05-01T05:28:24;8.90;99.90
20231;DHT22;10274;49.022;9.338;2023-05-01T05:30:52;9.00;99.90
20231;DHT22;10274;49.022;9.338;2023-05-01T05:33:20;9.10;99.90
20231;DHT22;10274;49.022;9.338;2023-05-01T05:35:47;9.20;99.90
20231;DHT22;10274;49.022;9.338;2023-05-01T05:38:14;9.40;99.90
20231;DHT22;10274;49.022;9.338;2023-05-01T05:40:40;9.60;73.30
20231;DHT22;10274;49.022;9.338;2023-05-01T05:43:07;9.80;12.80
20231;DHT22;10274;49.022;9.338;2023-05-01T05:45:35;10.10;1.00
20231;DHT22;10274;49.022;9.338;2023-05-01T05:48:03;10.30;1.00
20231;DHT22;10274;49.022;9.338;2023-05-01T05:50:30;10.50;1.00
20231;DHT22;10274;49.022;9.338;2023-05-01T05:52:57;10.50;1.00
20231;DHT22;10274;49.022;9.338;2023-05-01T05:55:23;10.60;1.00
20231;DHT22;10274;49.022;9.338;2023-05-01T05:57:50;10.70;1.00
20231;DHT22;10274;49.022;9.338;2023-05-01T06:00:17;11.00;99.90
20231;DHT22;10274;49.022;9.338;2023-05-01T06:02:44;11.10;1.00
20231;DHT22;10274;49.022;9.338;2023-05-01T06:05:12;11.30;1.00
20231;DHT22;10274;49.022;9.338;2023-05-01T06:07:39;11.60;1.00
20231;DHT22;10274;49.022;9.338;2023-05-01T06:10:06;11.60;1.00
20231;DHT22;10274;49.022;9.338;2023-05-01T06:12:33;11.50;99.90
20231;DHT22;10274;49.022;9.338;2023-05-01T06:15:00;11.50;1.00
20231;DHT22;10274;49.022;9.338;2023-05-01T06:17:27;11.50;99.90
20231;DHT22;10274;49.022;9.338;2023-05-01T06:19:54;11.50;99.90
20231;DHT22;10274;49.022;9.338;2023-05-01T06:22:22;11.50;1.00
20231;DHT22;10274;49.022;9.338;2023-05-01T06:24:48;11.60;20.90
20231;DHT22;10274;49.022;9.338;2023-05-01T06:27:16;11.70;66.60
20231;DHT22;10274;49.022;9.338;2023-05-01T06:29:43;11.60;1.00
20231;DHT22;10274;49.022;9.338;2023-05-01T06:32:09;11.70;1.00
20231;DHT22;10274;49.022;9.338;2023-05-01T06:34:36;11.70;1.00
20231;DHT22;10274;49.022;9.338;2023-05-01T06:37:02;11.60;99.90
20231;DHT22;10274;49.022;9.338;2023-05-01T06:39:33;11.70;99.90
20231;DHT22;10274;49.022;9.338;2023-05-01T06:42:00;11.70;1.00
20231;DHT22;10274;49.022;9.338;2023-05-01T06:44:27;11.70;99.90
20231;DHT22;10274;49.022;9.338;2023-05-01T06:46:54;11.70;1.00
20231;DHT22;10274;49.022;9.338;2023-05-01T06:49:21;11.70;1.00
20231;DHT22;10274;49.022;9.338;2023-05-01T06:51:48;11.70;99.90
20231;DHT22;10274;49.022;9.338;2023-05-01T06:54:15;11.90;1.00
20231;DHT22;10274;49.022;9.338;2023-05-01T06:56:43;11.90;1.00
20231;DHT22;10274;49.022;9.338;2023-05-01T06:59:10;11.90;1.00
20231;DHT22;10274;49.022;9.338;2023-05-01T07:01:36;11.90;99.90
20231;DHT22;10274;49.022;9.338;2023-05-01T07:04:03;11.90;1.00
20231;DHT22;10274;49.022;9.338;2023-05-01T07:06:30;12.00;99.90
20231;DHT22;10274;49.022;9.338;2023-05-01T07:08:57;12.00;99.90
20231;DHT22;10274;49.022;9.338;2023-05-01T07:11:24;12.10;99.90
20231;DHT22;10274;49.022;9.338;2023-05-01T07:13:53;12.10;1.00
20231;DHT22;10274;49.022;9.338;2023-05-01T07:16:19;12.10;1.00
20231;DHT22;10274;49.022;9.338;2023-05-01T07:18:46;12.00;1.00
20231;DHT22;10274;49.022;9.338;2023-05-01T07:21:13;12.00;99.90
20231;DHT22;10274;49.022;9.338;2023-05-01T07:23:40;12.10;99.90
20231;DHT22;10274;49.022;9.338;2023-05-01T07:26:07;12.10;99.90
20231;DHT22;10274;49.022;9.338;2023-05-01T07:28:33;12.20;99.90
20231;DHT22;10274;49.022;9.338;2023-05-01T07:31:01;12.20;1.00
20231;DHT22;10274;49.022;9.338;2023-05-01T07:33:28;12.20;99.90
20231;DHT22;10274;49.022;9.338;2023-05-01T07:35:55;12.30;1.00
20231;DHT22;10274;49.022;9.338;2023-05-01T07:38:22;12.40;1.00
20231;DHT22;10274;49.022;9.338;2023-05-01T07:40:51;12.50;1.00
20231;DHT22;10274;49.022;9.338;2023-05-01T07:43:18;12.60;99.90
20231;DHT22;10274;49.022;9.338;2023-05-01T07:45:53;12.50;44.20
20231;DHT22;10274;49.022;9.338;2023-05-01T07:48:23;12.50;18.10
20231;DHT22;10274;49.022;9.338;2023-05-01T07:50:49;12.60;1.00
20231;DHT22;10274;49.022;9.338;2023-05-01T07:53:16;12.60;99.90
20231;DHT22;10274;49.022;9.338;2023-05-01T07:55:43;12.60;99.90
20231;DHT22;10274;49.022;9.338;2023-05-01T07:58:10;12.60;1.00
20231;DHT22;10274;49.022;9.338;2023-05-01T08:00:36;12.70;1.00
20231;DHT22;10274;49.022;9.338;2023-05-01T08:03:03;12.70;1.00
20231;DHT22;10274;49.022;9.338;2023-05-01T08:05:31;12.70;99.90
20231;DHT22;10274;49.022;9.338;2023-05-01T08:07:58;12.70;1.00
20231;DHT22;10274;49.022;9.338;2023-05-01T08:10:24;12.70;99.90
20231;DHT22;10274;49.022;9.338;2023-05-01T08:12:52;12.70;99.90
20231;DHT22;10274;49.022;9.338;2023-05-01T08:15:19;12.70;1.00
20231;DHT22;10274;49.022;9.338;2023-05-01T08:17:46;12.70;99.90
20231;DHT22;10274;49.022;9.338;2023-05-01T08:20:13;12.60;1.00
20231;DHT22;10274;49.022;9.338;2023-05-01T08:22:41;12.70;1.00
20231;DHT22;10274;49.022;9.338;2023-05-01T08:25:08;12.70;99.90
20231;DHT22;10274;49.022;9.338;2023-05-01T08:27:34;12.70;99.90
20231;DHT22;10274;49.022;9.338;2023-05-01T08:30:01;12.70;99.90
20231;DHT22;10274;49.022;9.338;2023-05-01T08:32:28;12.70;99.90
20231;DHT22;10274;49.022;9.338;2023-05-01T08:34:55;12.80;99.90
20231;DHT22;10274;49.022;9.338;2023-05-01T08:37:21;12.90;99.90
20231;DHT22;10274;49.022;9.338;2023-05-01T08:39:49;12.80;1.00
20231;DHT22;10274;49.022;9.338;2023-05-01T08:42:16;12.80;99.90
20231;DHT22;10274;49.022;9.338;2023-05-01T08:44:45;12.70;1.00
20231;DHT22;10274;49.022;9.338;2023-05-01T08:47:15;12.60;1.00
20231;DHT22;10274;49.022;9.338;2023-05-01T08:49:43;12.70;1.00
20231;DHT22;10274;49.022;9.338;2023-05-01T08:52:11;12.70;1.00
20231;DHT22;10274;49.022;9.338;2023-05-01T08:54:41;12.80;99.90
20231;DHT22;10274;49.022;9.338;2023-05-01T08:57:10;12.70;1.00
20231;DHT22;10274;49.022;9.338;2023-05-01T08:59:38;12.80;1.00
20231;DHT22;10274;49.022;9.338;2023-05-01T09:02:06;12.80;1.00
20231;DHT22;10274;49.022;9.338;2023-05-01T09:04:34;12.90;1.00
20231;DHT22;10274;49.022;9.338;2023-05-01T09:07:02;13.00;1.00
20231;DHT22;10274;49.022;9.338;2023-05-01T09:09:29;13.00;1.00
20231;DHT22;10274;49.022;9.338;2023-05-01T09:11:59;13.10;1.00
20231;DHT22;10274;49.022;9.338;2023-05-01T09:14:30;13.10;1.00
20231;DHT22;10274;49.022;9.338;2023-05-01T09:16:57;13.20;1.00
20231;DHT22;10274;49.022;9.338;2023-05-01T09:19:25;13.30;8.20
20231;DHT22;10274;49.022;9.338;2023-05-01T09:21:52;13.30;1.00
20231;DHT22;10274;49.022;9.338;2023-05-01T09:24:20;13.40;1.00
20231;DHT22;10274;49.022;9.338;2023-05-01T09:26:48;13.50;1.00
20231;DHT22;10274;49.022;9.338;2023-05-01T09:29:37;13.60;1.00
20231;DHT22;10274;49.022;9.338;2023-05-01T09:32:15;13.70;1.00
20231;DHT22;10274;49.022;9.338;2023-05-01T09:34:42;13.90;99.90
20231;DHT22;10274;49.022;9.338;2023-05-01T09:37:11;13.90;99.90
20231;DHT22;10274;49.022;9.338;2023-05-01T09:39:39;14.10;1.00
20231;DHT22;10274;49.022;9.338;2023-05-01T09:42:06;14.10;1.00
20231;DHT22;10274;49.022;9.338;2023-05-01T09:44:41;14.20;5.80
20231;DHT22;10274;49.022;9.338;2023-05-01T09:47:09;14.40;99.90
20231;DHT22;10274;49.022;9.338;2023-05-01T09:49:44;14.90;1.00
20231;DHT22;10274;49.022;9.338;2023-05-01T09:52:12;15.20;99.90
20231;DHT22;10274;49.022;9.338;2023-05-01T09:54:40;15.90;1.00
20231;DHT22;10274;49.022;9.338;2023-05-01T09:57:07;15.80;99.90
20231;DHT22;10274;49.022;9.338;2023-05-01T09:59:34;15.60;1.00
20231;DHT22;10274;49.022;9.338;2023-05-01T10:02:02;15.60;1.00
20231;DHT22;10274;49.022;9.338;2023-05-01T10:04:29;15.40;32.30
20231;DHT22;10274;49.022;9.338;2023-05-01T10:06:56;15.30;1.00
20231;DHT22;10274;49.022;9.338;2023-05-01T10:09:27;15.20;1.00
20231;DHT22;10274;49.022;9.338;2023-05-01T10:11:55;15.00;99.90
20231;DHT22;10274;49.022;9.338;2023-05-01T10:14:23;15.30;1.00
20231;DHT22;10274;49.022;9.338;2023-05-01T10:16:52;15.70;12.30
20231;DHT22;10274;49.022;9.338;2023-05-01T10:19:20;15.70;1.00
20231;DHT22;10274;49.022;9.338;2023-05-01T10:21:47;15.90;1.00
20231;DHT22;10274;49.022;9.338;2023-05-01T10:24:14;16.30;1.00
20231;DHT22;10274;49.022;9.338;2023-05-01T10:26:41;16.50;1.00
20231;DHT22;10274;49.022;9.338;2023-05-01T10:29:08;16.80;99.90
20231;DHT22;10274;49.022;9.338;2023-05-01T10:31:35;16.80;1.00
20231;DHT22;10274;49.022;9.338;2023-05-01T10:34:01;16.50;99.90
20231;DHT22;10274;49.022;9.338;2023-05-01T10:36:36;16.50;99.90
20231;DHT22;10274;49.022;9.338;2023-05-01T10:39:04;16.50;1.00
20231;DHT22;10274;49.022;9.338;2023-05-01T10:41:59;16.40;99.90
20231;DHT22;10274;49.022;9.338;2023-05-01T10:44:28;16.40;1.00
20231;DHT22;10274;49.022;9.338;2023-05-01T10:46:55;16.40;99.90
20231;DHT22;10274;49.022;9.338;2023-05-01T10:49:22;16.40;99.90
20231;DHT22;10274;49.022;9.338;2023-05-01T10:52:00;16.60;1.00
20231;DHT22;10274;49.022;9.338;2023-05-01T10:54:28;16.90;1.00
20231;DHT22;10274;49.022;9.338;2023-05-01T10:56:58;16.60;1.00
20231;DHT22;10274;49.022;9.338;2023-05-01T10:59:26;16.80;1.00
20231;DHT22;10274;49.022;9.338;2023-05-01T11:01:52;16.70;1.00
20231;DHT22;10274;49.022;9.338;2023-05-01T11:04:45;17.00;1.00
20231;DHT22;10274;49.022;9.338;2023-05-01T11:07:17;17.00;1.00
20231;DHT22;10274;49.022;9.338;2023-05-01T11:09:44;17.00;1.00
20231;DHT22;10274;49.022;9.338;2023-05-01T11:12:12;16.70;1.00
20231;DHT22;10274;49.022;9.338;2023-05-01T11:15:00;17.00;1.00
20231;DHT22;10274;49.022;9.338;2023-05-01T11:17:47;16.60;1.00
20231;DHT22;10274;49.022;9.338;2023-05-01T11:20:45;16.70;1.00
20231;DHT22;10274;49.022;9.338;2023-05-01T11:23:18;17.00;1.00
20231;DHT22;10274;49.022;9.338;2023-05-01T11:25:46;17.30;1.00
20231;DHT22;10274;49.022;9.338;2023-05-01T11:28:18;17.30;1.00
20231;DHT22;10274;49.022;9.338;2023-05-01T11:30:45;17.50;1.00
20231;DHT22;10274;49.022;9.338;2023-05-01T11:33:13;17.40;1.00
20231;DHT22;10274;49.022;9.338;2023-05-01T11:35:58;17.50;1.00
20231;DHT22;10274;49.022;9.338;2023-05-01T11:38:27;17.50;1.00
20231;DHT22;10274;49.022;9.338;2023-05-01T11:40:56;17.20;1.00
20231;DHT22;10274;49.022;9.338;2023-05-01T11:43:23;17.50;1.00
20231;DHT22;10274;49.022;9.338;2023-05-01T11:45:51;17.60;1.00
20231;DHT22;10274;49.022;9.338;2023-05-01T11:48:20;17.50;1.00
20231;DHT22;10274;49.022;9.338;2023-05-01T11:50:47;17.50;1.00
20231;DHT22;10274;49.022;9.338;2023-05-01T11:53:14;17.70;1.00
20231;DHT22;10274;49.022;9.338;2023-05-01T11:55:43;17.70;1.00
20231;DHT22;10274;49.022;9.338;2023-05-01T11:58:11;17.80;1.00
20231;DHT22;10274;49.022;9.338;2023-05-01T12:00:39;17.90;1.00
20231;DHT22;10274;49.022;9.338;2023-05-01T12:03:07;17.90;1.00
20231;DHT22;10274;49.022;9.338;2023-05-01T12:05:35;17.90;1.00
20231;DHT22;10274;49.022;9.338;2023-05-01T12:08:11;18.00;1.00
20231;DHT22;10274;49.022;9.338;2023-05-01T12:10:39;18.30;1.00
20231;DHT22;10274;49.022;9.338;2023-05-01T12:13:09;18.20;99.90
20231;DHT22;10274;49.022;9.338;2023-05-01T12:15:38;18.00;1.00
20231;DHT22;10274;49.022;9.338;2023-05-01T12:18:05;18.20;1.00
20231;DHT22;10274;49.022;9.338;2023-05-01T12:20:40;18.30;1.00
20231;DHT22;10274;49.022;9.338;2023-05-01T12:23:09;18.10;1.00
20231;DHT22;10274;49.022;9.338;2023-05-01T12:25:36;18.00;1.00
20231;DHT22;10274;49.022;9.338;2023-05-01T12:28:10;17.70;99.90
20231;DHT22;10274;49.022;9.338;2023-05-01T12:30:38;17.50;1.00
20231;DHT22;10274;49.022;9.338;2023-05-01T12:33:10;17.60;1.00
20231;DHT22;10274;49.022;9.338;2023-05-01T12:35:38;17.90;1.00
20231;DHT22;10274;49.022;9.338;2023-05-01T12:38:15;18.10;1.00
20231;DHT22;10274;49.022;9.338;2023-05-01T12:40:50;17.60;99.90
20231;DHT22;10274;49.022;9.338;2023-05-01T12:43:20;17.80;1.00
20231;DHT22;10274;49.022;9.338;2023-05-01T12:45:51;17.90;1.00
20231;DHT22;10274;49.022;9.338;2023-05-01T12:48:18;18.30;1.00
20231;DHT22;10274;49.022;9.338;2023-05-01T12:50:45;18.60;1.00
20231;DHT22;10274;49.022;9.338;2023-05-01T12:53:13;18.90;1.00
20231;DHT22;10274;49.022;9.338;2023-05-01T12:55:44;19.30;99.90
20231;DHT22;10274;49.022;9.338;2023-05-01T12:58:11;19.30;99.90
20231;DHT22;10274;49.022;9.338;2023-05-01T13:00:47;18.80;99.90
20231;DHT22;10274;49.022;9.338;2023-05-01T13:03:14;18.50;99.90
20231;DHT22;10274;49.022;9.338;2023-05-01T13:05:56;18.30;99.90
20231;DHT22;10274;49.022;9.338;2023-05-01T13:08:28;18.10;1.00
20231;DHT22;10274;49.022;9.338;2023-05-01T13:10:56;17.80;99.90
20231;DHT22;10274;49.022;9.338;2023-05-01T13:13:24;17.70;99.90
20231;DHT22;10274;49.022;9.338;2023-05-01T13:15:53;17.80;1.00
20231;DHT22;10274;49.022;9.338;2023-05-01T13:18:20;18.20;1.00
20231;DHT22;10274;49.022;9.338;2023-05-01T13:20:47;18.60;1.00
20231;DHT22;10274;49.022;9.338;2023-05-01T13:23:14;18.70;99.90
20231;DHT22;10274;49.022;9.338;2023-05-01T13:25:41;18.90;99.90
20231;DHT22;10274;49.022;9.338;2023-05-01T13:28:08;18.70;99.90
20231;DHT22;10274;49.022;9.338;2023-05-01T13:30:36;18.90;99.90
20231;DHT22;10274;49.022;9.338;2023-05-01T13:33:05;18.70;99.90
20231;DHT22;10274;49.022;9.338;2023-05-01T13:35:32;18.60;99.90
20231;DHT22;10274;49.022;9.338;2023-05-01T13:37:59;18.70;99.90
20231;DHT22;10274;49.022;9.338;2023-05-01T13:40:27;18.50;99.90
20231;DHT22;10274;49.022;9.338;2023-05-01T13:42:54;18.80;99.90
20231;DHT22;10274;49.022;9.338;2023-05-01T13:45:21;19.10;99.90
20231;DHT22;10274;49.022;9.338;2023-05-01T13:47:48;18.90;99.90
20231;DHT22;10274;49.022;9.338;2023-05-01T13:50:17;18.70;99.90
20231;DHT22;10274;49.022;9.338;2023-05-01T13:52:44;18.90;99.90
20231;DHT22;10274;49.022;9.338;2023-05-01T13:55:11;18.90;99.90
20231;DHT22;10274;49.022;9.338;2023-05-01T13:57:39;18.70;99.90
20231;DHT22;10274;49.022;9.338;2023-05-01T14:00:10;18.80;99.90
20231;DHT22;10274;49.022;9.338;2023-05-01T14:02:42;18.60;99.90
20231;DHT22;10274;49.022;9.338;2023-05-01T14:05:09;18.60;99.90
20231;DHT22;10274;49.022;9.338;2023-05-01T14:07:43;18.60;99.90
20231;DHT22;10274;49.022;9.338;2023-05-01T14:10:11;18.20;99.90
20231;DHT22;10274;49.022;9.338;2023-05-01T14:12:38;18.30;99.90
20231;DHT22;10274;49.022;9.338;2023-05-01T14:15:08;18.30;99.90
20231;DHT22;10274;49.022;9.338;2023-05-01T14:17:36;18.30;99.90
20231;DHT22;10274;49.022;9.338;2023-05-01T14:20:04;18.40;99.90
20231;DHT22;10274;49.022;9.338;2023-05-01T14:22:38;18.60;99.90
20231;DHT22;10274;49.022;9.338;2023-05-01T14:25:23;18.60;99.90
20231;DHT22;10274;49.022;9.338;2023-05-01T14:27:50;19.20;99.90
20231;DHT22;10274;49.022;9.338;2023-05-01T14:30:24;19.80;99.90
20231;DHT22;10274;49.022;9.338;2023-05-01T14:32:51;19.80;99.90
20231;DHT22;10274;49.022;9.338;2023-05-01T14:35:19;19.80;99.90
20231;DHT22;10274;49.022;9.338;2023-05-01T14:37:46;19.40;99.90
20231;DHT22;10274;49.022;9.338;2023-05-01T14:40:16;19.10;99.90
20231;DHT22;10274;49.022;9.338;2023-05-01T14:42:43;19.00;99.90
20231;DHT22;10274;49.022;9.338;2023-05-01T14:45:12;18.80;99.90
20231;DHT22;10274;49.022;9.338;2023-05-01T14:47:40;18.90;99.90
20231;DHT22;10274;49.022;9.338;2023-05-01T14:50:10;19.40;99.90
20231;DHT22;10274;49.022;9.338;2023-05-01T14:52:39;19.50;77.10
20231;DHT22;10274;49.022;9.338;2023-05-01T14:55:07;19.70;77.80
20231;DHT22;10274;49.022;9.338;2023-05-01T14:57:35;20.00;99.90
20231;DHT22;10274;49.022;9.338;2023-05-01T15:00:02;20.00;99.90
20231;DHT22;10274;49.022;9.338;2023-05-01T15:02:31;19.70;96.00
20231;DHT22;10274;49.022;9.338;2023-05-01T15:04:58;19.40;87.40
20231;DHT22;10274;49.022;9.338;2023-05-01T15:07:25;19.20;99.90
20231;DHT22;10274;49.022;9.338;2023-05-01T15:09:52;19.10;58.00
20231;DHT22;10274;49.022;9.338;2023-05-01T15:12:19;19.00;42.90
20231;DHT22;10274;49.022;9.338;2023-05-01T15:14:47;18.60;99.90
20231;DHT22;10274;49.022;9.338;2023-05-01T15:17:14;18.00;99.90
20231;DHT22;10274;49.022;9.338;2023-05-01T15:19:40;18.10;99.90
20231;DHT22;10274;49.022;9.338;2023-05-01T15:22:07;18.00;99.90
20231;DHT22;10274;49.022;9.338;2023-05-01T15:24:33;18.00;99.90
20231;DHT22;10274;49.022;9.338;2023-05-01T15:27:00;18.00;99.90
20231;DHT22;10274;49.022;9.338;2023-05-01T15:29:27;18.00;99.90
20231;DHT22;10274;49.022;9.338;2023-05-01T15:31:55;18.00;99.90
20231;DHT22;10274;49.022;9.338;2023-05-01T15:34:22;18.10;99.90
20231;DHT22;10274;49.022;9.338;2023-05-01T15:36:49;18.20;99.90
20231;DHT22;10274;49.022;9.338;2023-05-01T15:39:16;18.10;99.90
20231;DHT22;10274;49.022;9.338;2023-05-01T15:41:45;18.30;99.90
20231;DHT22;10274;49.022;9.338;2023-05-01T15:44:12;18.30;99.90
20231;DHT22;10274;49.022;9.338;2023-05-01T15:46:38;18.20;99.90
20231;DHT22;10274;49.022;9.338;2023-05-01T15:49:08;18.00;99.90
20231;DHT22;10274;49.022;9.338;2023-05-01T15:51:35;17.80;99.90
20231;DHT22;10274;49.022;9.338;2023-05-01T15:54:03;17.80;99.90